sensor_id;sensor_type;location;lat;lon;timestamp;P1;durP1;ratioP1;P2;durP2;ratioP2
7128;SDS011;3606;52.930;8.644;2022-10-18T00:00:56;55.07;;;30.40;;
7128;SDS011;3606;52.930;8.644;2022-10-18T00:03:22;60.50;;;30.77;;
7128;SDS011;3606;52.930;8.644;2022-10-18T00:05:47;45.83;;;26.70;;
7128;SDS011;3606;52.930;8.644;2022-10-18T00:08:14;50.03;;;28.37;;
7128;SDS011;3606;52.930;8.644;2022-10-18T00:10:41;46.40;;;27.67;;
7128;SDS011;3606;52.930;8.644;2022-10-18T00:13:07;43.67;;;26.87;;
7128;SDS011;3606;52.930;8.644;2022-10-18T00:15:32;44.93;;;26.73;;
7128;SDS011;3606;52.930;8.644;2022-10-18T00:17:58;41.10;;;25.40;;
7128;SDS011;3606;52.930;8.644;2022-10-18T00:20:24;48.03;;;27.70;;
7128;SDS011;3606;52.930;8.644;2022-10-18T00:22:50;40.40;;;25.77;;
7128;SDS011;3606;52.930;8.644;2022-10-18T00:25:15;37.63;;;25.07;;
7128;SDS011;3606;52.930;8.644;2022-10-18T00:27:41;43.23;;;27.03;;
7128;SDS011;3606;52.930;8.644;2022-10-18T00:30:07;50.37;;;27.10;;
7128;SDS011;3606;52.930;8.644;2022-10-18T00:32:37;44.77;;;27.40;;
7128;SDS011;3606;52.930;8.644;2022-10-18T00:35:04;51.00;;;27.43;;
7128;SDS011;3606;52.930;8.644;2022-10-18T00:37:30;42.40;;;26.40;;
7128;SDS011;3606;52.930;8.644;2022-10-18T00:39:57;50.70;;;29.30;;
7128;SDS011;3606;52.930;8.644;2022-10-18T00:42:24;53.60;;;28.70;;
7128;SDS011;3606;52.930;8.644;2022-10-18T00:47:39;56.07;;;29.47;;
7128;SDS011;3606;52.930;8.644;2022-10-18T00:50:06;61.17;;;31.30;;
7128;SDS011;3606;52.930;8.644;2022-10-18T00:52:37;59.63;;;31.70;;
7128;SDS011;3606;52.930;8.644;2022-10-18T00:55:06;57.53;;;31.47;;
7128;SDS011;3606;52.930;8.644;2022-10-18T00:57:32;61.00;;;31.97;;
7128;SDS011;3606;52.930;8.644;2022-10-18T00:59:58;53.53;;;29.07;;
7128;SDS011;3606;52.930;8.644;2022-10-18T01:02:24;58.50;;;30.57;;
7128;SDS011;3606;52.930;8.644;2022-10-18T01:04:50;57.23;;;30.63;;
7128;SDS011;3606;52.930;8.644;2022-10-18T01:07:26;57.53;;;29.40;;
7128;SDS011;3606;52.930;8.644;2022-10-18T01:10:29;47.67;;;27.97;;
7128;SDS011;3606;52.930;8.644;2022-10-18T01:22:00;39.33;;;24.37;;
7128;SDS011;3606;52.930;8.644;2022-10-18T01:32:53;51.03;;;29.23;;
7128;SDS011;3606;52.930;8.644;2022-10-18T01:35:29;54.27;;;30.47;;
7128;SDS011;3606;52.930;8.644;2022-10-18T01:37:59;57.60;;;29.80;;
7128;SDS011;3606;52.930;8.644;2022-10-18T01:40:29;42.50;;;26.00;;
7128;SDS011;3606;52.930;8.644;2022-10-18T01:42:57;51.67;;;29.33;;
7128;SDS011;3606;52.930;8.644;2022-10-18T01:45:23;53.80;;;29.23;;
7128;SDS011;3606;52.930;8.644;2022-10-18T01:47:49;50.93;;;27.90;;
7128;SDS011;3606;52.930;8.644;2022-10-18T01:50:21;53.77;;;28.73;;
7128;SDS011;3606;52.930;8.644;2022-10-18T01:52:56;45.93;;;27.17;;
7128;SDS011;3606;52.930;8.644;2022-10-18T01:55:25;42.40;;;24.43;;
7128;SDS011;3606;52.930;8.644;2022-10-18T01:58:04;45.43;;;25.97;;
7128;SDS011;3606;52.930;8.644;2022-10-18T02:00:42;37.23;;;22.87;;
7128;SDS011;3606;52.930;8.644;2022-10-18T02:03:13;41.63;;;22.50;;
7128;SDS011;3606;52.930;8.644;2022-10-18T02:11:01;39.57;;;21.60;;
7128;SDS011;3606;52.930;8.644;2022-10-18T02:13:29;37.83;;;21.03;;
7128;SDS011;3606;52.930;8.644;2022-10-18T02:16:12;34.40;;;22.13;;
7128;SDS011;3606;52.930;8.644;2022-10-18T02:18:48;38.43;;;22.73;;
7128;SDS011;3606;52.930;8.644;2022-10-18T02:21:21;34.37;;;22.23;;
7128;SDS011;3606;52.930;8.644;2022-10-18T02:23:51;40.60;;;23.60;;
7128;SDS011;3606;52.930;8.644;2022-10-18T02:26:18;40.27;;;24.30;;
7128;SDS011;3606;52.930;8.644;2022-10-18T02:28:44;42.10;;;25.57;;
7128;SDS011;3606;52.930;8.644;2022-10-18T02:31:20;55.00;;;29.10;;
7128;SDS011;3606;52.930;8.644;2022-10-18T02:36:47;41.23;;;26.03;;
7128;SDS011;3606;52.930;8.644;2022-10-18T02:39:24;44.77;;;24.50;;
7128;SDS011;3606;52.930;8.644;2022-10-18T02:41:54;44.40;;;24.37;;
7128;SDS011;3606;52.930;8.644;2022-10-18T02:44:21;32.40;;;21.07;;
7128;SDS011;3606;52.930;8.644;2022-10-18T02:46:47;35.30;;;21.90;;
7128;SDS011;3606;52.930;8.644;2022-10-18T02:49:13;36.03;;;22.23;;
7128;SDS011;3606;52.930;8.644;2022-10-18T02:51:38;33.27;;;20.70;;
7128;SDS011;3606;52.930;8.644;2022-10-18T02:54:04;40.97;;;22.17;;
7128;SDS011;3606;52.930;8.644;2022-10-18T02:56:30;44.00;;;23.77;;
7128;SDS011;3606;52.930;8.644;2022-10-18T02:58:55;34.43;;;21.97;;
7128;SDS011;3606;52.930;8.644;2022-10-18T03:01:21;45.93;;;25.73;;
7128;SDS011;3606;52.930;8.644;2022-10-18T03:03:48;42.73;;;25.80;;
7128;SDS011;3606;52.930;8.644;2022-10-18T03:06:14;52.73;;;28.27;;
7128;SDS011;3606;52.930;8.644;2022-10-18T03:08:40;60.23;;;30.77;;
7128;SDS011;3606;52.930;8.644;2022-10-18T03:11:05;70.97;;;32.43;;
7128;SDS011;3606;52.930;8.644;2022-10-18T03:13:31;50.67;;;27.20;;
7128;SDS011;3606;52.930;8.644;2022-10-18T03:15:58;56.83;;;30.63;;
7128;SDS011;3606;52.930;8.644;2022-10-18T03:18:24;70.07;;;30.80;;
7128;SDS011;3606;52.930;8.644;2022-10-18T03:20:50;71.83;;;32.70;;
7128;SDS011;3606;52.930;8.644;2022-10-18T03:23:15;77.73;;;34.57;;
7128;SDS011;3606;52.930;8.644;2022-10-18T03:25:41;92.83;;;36.17;;
7128;SDS011;3606;52.930;8.644;2022-10-18T03:28:06;82.87;;;35.63;;
7128;SDS011;3606;52.930;8.644;2022-10-18T03:30:32;85.20;;;36.43;;
7128;SDS011;3606;52.930;8.644;2022-10-18T03:32:58;92.37;;;36.47;;
7128;SDS011;3606;52.930;8.644;2022-10-18T03:35:23;81.60;;;35.93;;
7128;SDS011;3606;52.930;8.644;2022-10-18T03:37:49;92.63;;;38.80;;
7128;SDS011;3606;52.930;8.644;2022-10-18T03:40:15;76.43;;;33.70;;
7128;SDS011;3606;52.930;8.644;2022-10-18T03:42:40;82.73;;;36.77;;
7128;SDS011;3606;52.930;8.644;2022-10-18T03:45:06;78.97;;;34.83;;
7128;SDS011;3606;52.930;8.644;2022-10-18T03:47:32;86.13;;;34.50;;
7128;SDS011;3606;52.930;8.644;2022-10-18T03:49:58;64.27;;;30.20;;
7128;SDS011;3606;52.930;8.644;2022-10-18T03:52:23;64.83;;;29.90;;
7128;SDS011;3606;52.930;8.644;2022-10-18T03:54:49;67.33;;;34.13;;
7128;SDS011;3606;52.930;8.644;2022-10-18T03:57:14;70.47;;;31.77;;
7128;SDS011;3606;52.930;8.644;2022-10-18T03:59:40;67.43;;;32.03;;
7128;SDS011;3606;52.930;8.644;2022-10-18T04:02:06;61.10;;;27.87;;
7128;SDS011;3606;52.930;8.644;2022-10-18T04:04:31;64.30;;;30.87;;
7128;SDS011;3606;52.930;8.644;2022-10-18T04:06:57;60.23;;;28.60;;
7128;SDS011;3606;52.930;8.644;2022-10-18T04:09:22;67.23;;;30.10;;
7128;SDS011;3606;52.930;8.644;2022-10-18T04:11:49;68.23;;;29.57;;
7128;SDS011;3606;52.930;8.644;2022-10-18T04:14:15;69.67;;;29.73;;
7128;SDS011;3606;52.930;8.644;2022-10-18T04:16:40;51.00;;;24.53;;
7128;SDS011;3606;52.930;8.644;2022-10-18T04:19:06;51.17;;;25.40;;
7128;SDS011;3606;52.930;8.644;2022-10-18T04:21:31;49.80;;;25.17;;
7128;SDS011;3606;52.930;8.644;2022-10-18T04:23:57;73.37;;;30.80;;
7128;SDS011;3606;52.930;8.644;2022-10-18T04:26:23;62.93;;;29.20;;
7128;SDS011;3606;52.930;8.644;2022-10-18T04:28:48;63.47;;;28.17;;
7128;SDS011;3606;52.930;8.644;2022-10-18T04:31:14;72.60;;;29.63;;
7128;SDS011;3606;52.930;8.644;2022-10-18T04:33:39;62.27;;;29.60;;
7128;SDS011;3606;52.930;8.644;2022-10-18T04:36:05;59.00;;;28.10;;
7128;SDS011;3606;52.930;8.644;2022-10-18T04:38:31;73.17;;;30.27;;
7128;SDS011;3606;52.930;8.644;2022-10-18T04:40:56;82.97;;;31.43;;
7128;SDS011;3606;52.930;8.644;2022-10-18T04:43:22;56.43;;;26.23;;
7128;SDS011;3606;52.930;8.644;2022-10-18T04:45:47;55.53;;;26.57;;
7128;SDS011;3606;52.930;8.644;2022-10-18T04:48:15;60.33;;;27.80;;
7128;SDS011;3606;52.930;8.644;2022-10-18T04:50:41;73.83;;;27.90;;
7128;SDS011;3606;52.930;8.644;2022-10-18T04:53:06;80.43;;;29.80;;
7128;SDS011;3606;52.930;8.644;2022-10-18T04:55:32;65.37;;;29.30;;
7128;SDS011;3606;52.930;8.644;2022-10-18T04:57:57;62.03;;;27.97;;
7128;SDS011;3606;52.930;8.644;2022-10-18T05:00:23;67.73;;;28.03;;
7128;SDS011;3606;52.930;8.644;2022-10-18T05:02:49;61.17;;;27.17;;
7128;SDS011;3606;52.930;8.644;2022-10-18T05:05:19;78.10;;;27.30;;
7128;SDS011;3606;52.930;8.644;2022-10-18T05:07:45;58.53;;;25.77;;
7128;SDS011;3606;52.930;8.644;2022-10-18T05:10:10;104.60;;;31.03;;
7128;SDS011;3606;52.930;8.644;2022-10-18T05:12:36;70.30;;;28.47;;
7128;SDS011;3606;52.930;8.644;2022-10-18T05:15:01;76.17;;;29.00;;
7128;SDS011;3606;52.930;8.644;2022-10-18T05:17:27;58.40;;;27.43;;
7128;SDS011;3606;52.930;8.644;2022-10-18T05:19:53;69.07;;;28.63;;
7128;SDS011;3606;52.930;8.644;2022-10-18T05:22:18;64.13;;;28.00;;
7128;SDS011;3606;52.930;8.644;2022-10-18T05:24:44;80.73;;;30.33;;
7128;SDS011;3606;52.930;8.644;2022-10-18T05:27:09;70.27;;;29.17;;
7128;SDS011;3606;52.930;8.644;2022-10-18T05:29:35;111.87;;;30.77;;
7128;SDS011;3606;52.930;8.644;2022-10-18T05:32:01;80.20;;;29.57;;
7128;SDS011;3606;52.930;8.644;2022-10-18T05:34:27;89.57;;;29.43;;
7128;SDS011;3606;52.930;8.644;2022-10-18T05:36:55;60.33;;;26.30;;
7128;SDS011;3606;52.930;8.644;2022-10-18T05:39:21;66.63;;;25.77;;
7128;SDS011;3606;52.930;8.644;2022-10-18T05:41:47;87.10;;;27.20;;
7128;SDS011;3606;52.930;8.644;2022-10-18T05:44:13;82.03;;;28.07;;
7128;SDS011;3606;52.930;8.644;2022-10-18T05:46:38;71.57;;;27.33;;
7128;SDS011;3606;52.930;8.644;2022-10-18T05:49:04;83.60;;;27.90;;
7128;SDS011;3606;52.930;8.644;2022-10-18T05:51:30;72.50;;;27.77;;
7128;SDS011;3606;52.930;8.644;2022-10-18T05:53:56;61.33;;;26.37;;
7128;SDS011;3606;52.930;8.644;2022-10-18T05:56:22;61.27;;;26.43;;
7128;SDS011;3606;52.930;8.644;2022-10-18T05:58:49;65.03;;;25.57;;
7128;SDS011;3606;52.930;8.644;2022-10-18T06:01:15;66.37;;;26.80;;
7128;SDS011;3606;52.930;8.644;2022-10-18T06:03:41;51.33;;;24.50;;
7128;SDS011;3606;52.930;8.644;2022-10-18T06:06:08;59.20;;;27.00;;
7128;SDS011;3606;52.930;8.644;2022-10-18T06:08:35;60.27;;;24.93;;
7128;SDS011;3606;52.930;8.644;2022-10-18T06:11:09;57.97;;;23.30;;
7128;SDS011;3606;52.930;8.644;2022-10-18T06:13:42;63.33;;;24.23;;
7128;SDS011;3606;52.930;8.644;2022-10-18T06:16:09;53.30;;;22.67;;
7128;SDS011;3606;52.930;8.644;2022-10-18T06:18:36;50.07;;;23.43;;
7128;SDS011;3606;52.930;8.644;2022-10-18T06:21:02;48.17;;;23.27;;
7128;SDS011;3606;52.930;8.644;2022-10-18T06:23:28;55.50;;;23.27;;
7128;SDS011;3606;52.930;8.644;2022-10-18T06:25:57;62.57;;;24.23;;
7128;SDS011;3606;52.930;8.644;2022-10-18T06:28:28;47.93;;;20.63;;
7128;SDS011;3606;52.930;8.644;2022-10-18T06:30:54;66.90;;;24.17;;
7128;SDS011;3606;52.930;8.644;2022-10-18T06:33:23;44.40;;;21.53;;
7128;SDS011;3606;52.930;8.644;2022-10-18T06:38:21;44.67;;;20.60;;
7128;SDS011;3606;52.930;8.644;2022-10-18T06:40:47;41.97;;;20.10;;
7128;SDS011;3606;52.930;8.644;2022-10-18T06:43:12;52.53;;;22.07;;
7128;SDS011;3606;52.930;8.644;2022-10-18T06:45:38;50.90;;;21.40;;
7128;SDS011;3606;52.930;8.644;2022-10-18T06:48:04;51.50;;;23.67;;
7128;SDS011;3606;52.930;8.644;2022-10-18T06:50:29;62.13;;;22.27;;
7128;SDS011;3606;52.930;8.644;2022-10-18T06:52:55;48.70;;;22.93;;
7128;SDS011;3606;52.930;8.644;2022-10-18T06:55:21;58.33;;;23.43;;
7128;SDS011;3606;52.930;8.644;2022-10-18T06:57:46;50.77;;;21.90;;
7128;SDS011;3606;52.930;8.644;2022-10-18T07:00:12;49.40;;;21.23;;
7128;SDS011;3606;52.930;8.644;2022-10-18T07:02:38;50.10;;;21.70;;
7128;SDS011;3606;52.930;8.644;2022-10-18T07:05:05;51.50;;;19.50;;
7128;SDS011;3606;52.930;8.644;2022-10-18T07:07:32;46.30;;;19.40;;
7128;SDS011;3606;52.930;8.644;2022-10-18T07:09:57;41.20;;;19.00;;
7128;SDS011;3606;52.930;8.644;2022-10-18T07:12:23;46.77;;;19.83;;
7128;SDS011;3606;52.930;8.644;2022-10-18T07:14:48;56.23;;;20.70;;
7128;SDS011;3606;52.930;8.644;2022-10-18T07:17:14;49.23;;;22.03;;
7128;SDS011;3606;52.930;8.644;2022-10-18T07:19:40;52.43;;;20.50;;
7128;SDS011;3606;52.930;8.644;2022-10-18T07:22:05;55.40;;;22.03;;
7128;SDS011;3606;52.930;8.644;2022-10-18T07:24:31;55.73;;;21.83;;
7128;SDS011;3606;52.930;8.644;2022-10-18T07:26:56;47.13;;;20.47;;
7128;SDS011;3606;52.930;8.644;2022-10-18T07:29:22;48.03;;;20.00;;
7128;SDS011;3606;52.930;8.644;2022-10-18T07:31:47;51.83;;;20.17;;
7128;SDS011;3606;52.930;8.644;2022-10-18T07:34:13;52.00;;;20.27;;
7128;SDS011;3606;52.930;8.644;2022-10-18T07:36:39;43.57;;;19.70;;
7128;SDS011;3606;52.930;8.644;2022-10-18T07:39:05;42.13;;;18.33;;
7128;SDS011;3606;52.930;8.644;2022-10-18T07:41:31;42.73;;;18.63;;
7128;SDS011;3606;52.930;8.644;2022-10-18T07:43:58;33.50;;;18.00;;
7128;SDS011;3606;52.930;8.644;2022-10-18T07:46:24;34.03;;;16.70;;
7128;SDS011;3606;52.930;8.644;2022-10-18T07:48:50;42.87;;;17.40;;
7128;SDS011;3606;52.930;8.644;2022-10-18T07:51:16;38.73;;;18.23;;
7128;SDS011;3606;52.930;8.644;2022-10-18T07:53:43;34.13;;;15.60;;
7128;SDS011;3606;52.930;8.644;2022-10-18T07:56:10;39.93;;;16.97;;
7128;SDS011;3606;52.930;8.644;2022-10-18T07:58:41;39.23;;;18.27;;
7128;SDS011;3606;52.930;8.644;2022-10-18T08:01:07;43.33;;;17.17;;
7128;SDS011;3606;52.930;8.644;2022-10-18T08:03:33;31.43;;;15.80;;
7128;SDS011;3606;52.930;8.644;2022-10-18T08:06:00;33.13;;;16.30;;
7128;SDS011;3606;52.930;8.644;2022-10-18T08:08:26;39.87;;;16.37;;
7128;SDS011;3606;52.930;8.644;2022-10-18T08:10:52;42.57;;;17.23;;
7128;SDS011;3606;52.930;8.644;2022-10-18T08:13:18;34.03;;;17.47;;
7128;SDS011;3606;52.930;8.644;2022-10-18T08:15:44;44.40;;;19.17;;
7128;SDS011;3606;52.930;8.644;2022-10-18T08:18:10;46.40;;;19.73;;
7128;SDS011;3606;52.930;8.644;2022-10-18T08:20:36;45.30;;;18.57;;
7128;SDS011;3606;52.930;8.644;2022-10-18T08:23:04;43.60;;;20.00;;
7128;SDS011;3606;52.930;8.644;2022-10-18T08:25:30;46.03;;;19.53;;
7128;SDS011;3606;52.930;8.644;2022-10-18T08:27:55;35.13;;;18.37;;
7128;SDS011;3606;52.930;8.644;2022-10-18T08:30:21;35.80;;;19.30;;
7128;SDS011;3606;52.930;8.644;2022-10-18T08:32:47;38.30;;;20.43;;
7128;SDS011;3606;52.930;8.644;2022-10-18T08:35:13;41.60;;;19.90;;
7128;SDS011;3606;52.930;8.644;2022-10-18T08:37:39;36.97;;;19.33;;
7128;SDS011;3606;52.930;8.644;2022-10-18T08:40:04;34.47;;;17.53;;
7128;SDS011;3606;52.930;8.644;2022-10-18T08:45:22;34.80;;;17.87;;
7128;SDS011;3606;52.930;8.644;2022-10-18T08:47:48;29.83;;;16.53;;
7128;SDS011;3606;52.930;8.644;2022-10-18T08:50:17;23.83;;;15.30;;
7128;SDS011;3606;52.930;8.644;2022-10-18T08:55:47;26.40;;;14.60;;
7128;SDS011;3606;52.930;8.644;2022-10-18T08:58:23;29.40;;;15.53;;
7128;SDS011;3606;52.930;8.644;2022-10-18T09:01:02;25.27;;;14.80;;
7128;SDS011;3606;52.930;8.644;2022-10-18T09:09:23;18.53;;;11.87;;
7128;SDS011;3606;52.930;8.644;2022-10-18T09:20:25;21.40;;;12.20;;
7128;SDS011;3606;52.930;8.644;2022-10-18T09:23:16;23.87;;;12.80;;
7128;SDS011;3606;52.930;8.644;2022-10-18T09:26:07;19.53;;;11.53;;
7128;SDS011;3606;52.930;8.644;2022-10-18T09:33:33;17.25;;;9.85;;
7128;SDS011;3606;52.930;8.644;2022-10-18T09:36:05;14.75;;;9.38;;
7128;SDS011;3606;52.930;8.644;2022-10-18T09:38:48;12.23;;;7.78;;
7128;SDS011;3606;52.930;8.644;2022-10-18T09:41:33;20.55;;;9.57;;
7128;SDS011;3606;52.930;8.644;2022-10-18T09:44:09;15.65;;;8.73;;
7128;SDS011;3606;52.930;8.644;2022-10-18T09:47:36;12.50;;;7.15;;
7128;SDS011;3606;52.930;8.644;2022-10-18T09:49:46;12.32;;;7.85;;
7128;SDS011;3606;52.930;8.644;2022-10-18T09:52:17;14.93;;;8.55;;
7128;SDS011;3606;52.930;8.644;2022-10-18T09:54:54;17.88;;;7.88;;
7128;SDS011;3606;52.930;8.644;2022-10-18T10:00:05;10.05;;;6.68;;
7128;SDS011;3606;52.930;8.644;2022-10-18T10:02:40;11.73;;;6.55;;
7128;SDS011;3606;52.930;8.644;2022-10-18T10:05:10;12.73;;;7.30;;
7128;SDS011;3606;52.930;8.644;2022-10-18T10:07:40;11.85;;;7.78;;
7128;SDS011;3606;52.930;8.644;2022-10-18T10:10:12;11.32;;;6.82;;
7128;SDS011;3606;52.930;8.644;2022-10-18T10:12:44;9.57;;;6.60;;
7128;SDS011;3606;52.930;8.644;2022-10-18T10:17:57;8.52;;;6.45;;
7128;SDS011;3606;52.930;8.644;2022-10-18T10:26:01;7.95;;;5.32;;
7128;SDS011;3606;52.930;8.644;2022-10-18T10:28:34;14.10;;;6.20;;
7128;SDS011;3606;52.930;8.644;2022-10-18T10:36:36;9.30;;;6.18;;
7128;SDS011;3606;52.930;8.644;2022-10-18T10:39:12;12.55;;;6.00;;
7128;SDS011;3606;52.930;8.644;2022-10-18T10:41:46;8.80;;;6.05;;
7128;SDS011;3606;52.930;8.644;2022-10-18T10:44:20;14.55;;;5.85;;
7128;SDS011;3606;52.930;8.644;2022-10-18T10:46:53;12.15;;;6.50;;
7128;SDS011;3606;52.930;8.644;2022-10-18T10:49:23;8.27;;;5.28;;
7128;SDS011;3606;52.930;8.644;2022-10-18T10:51:55;11.23;;;5.28;;
7128;SDS011;3606;52.930;8.644;2022-10-18T10:54:24;14.75;;;5.97;;
7128;SDS011;3606;52.930;8.644;2022-10-18T10:57:37;11.10;;;5.20;;
7128;SDS011;3606;52.930;8.644;2022-10-18T10:59:42;8.48;;;5.25;;
7128;SDS011;3606;52.930;8.644;2022-10-18T11:04:40;8.35;;;4.03;;
7128;SDS011;3606;52.930;8.644;2022-10-18T11:12:35;9.57;;;4.07;;
7128;SDS011;3606;52.930;8.644;2022-10-18T11:20:52;8.70;;;4.57;;
7128;SDS011;3606;52.930;8.644;2022-10-18T11:23:27;14.50;;;5.20;;
7128;SDS011;3606;52.930;8.644;2022-10-18T11:28:52;7.93;;;5.27;;
7128;SDS011;3606;52.930;8.644;2022-10-18T11:31:26;7.73;;;4.50;;
7128;SDS011;3606;52.930;8.644;2022-10-18T11:40:00;9.80;;;5.63;;
7128;SDS011;3606;52.930;8.644;2022-10-18T11:48:22;6.67;;;3.20;;
7128;SDS011;3606;52.930;8.644;2022-10-18T11:53:48;6.20;;;2.97;;
7128;SDS011;3606;52.930;8.644;2022-10-18T12:04:50;6.80;;;2.27;;
7128;SDS011;3606;52.930;8.644;2022-10-18T12:07:21;6.63;;;2.57;;
7128;SDS011;3606;52.930;8.644;2022-10-18T12:09:48;6.70;;;2.50;;
7128;SDS011;3606;52.930;8.644;2022-10-18T12:12:21;5.83;;;2.60;;
7128;SDS011;3606;52.930;8.644;2022-10-18T12:14:55;9.10;;;2.83;;
7128;SDS011;3606;52.930;8.644;2022-10-18T12:19:59;7.17;;;3.10;;
7128;SDS011;3606;52.930;8.644;2022-10-18T12:22:33;7.07;;;3.00;;
7128;SDS011;3606;52.930;8.644;2022-10-18T12:25:20;12.73;;;2.90;;
7128;SDS011;3606;52.930;8.644;2022-10-18T12:30:33;6.57;;;2.53;;
7128;SDS011;3606;52.930;8.644;2022-10-18T12:33:08;9.30;;;2.93;;
7128;SDS011;3606;52.930;8.644;2022-10-18T12:35:51;6.60;;;2.50;;
7128;SDS011;3606;52.930;8.644;2022-10-18T12:38:33;4.10;;;2.43;;
7128;SDS011;3606;52.930;8.644;2022-10-18T12:41:01;5.60;;;3.00;;
7128;SDS011;3606;52.930;8.644;2022-10-18T12:43:29;14.47;;;3.40;;
7128;SDS011;3606;52.930;8.644;2022-10-18T12:46:01;9.73;;;2.60;;
7128;SDS011;3606;52.930;8.644;2022-10-18T12:53:30;7.00;;;2.57;;
7128;SDS011;3606;52.930;8.644;2022-10-18T12:56:31;5.77;;;2.40;;
7128;SDS011;3606;52.930;8.644;2022-10-18T12:58:51;10.13;;;2.57;;
7128;SDS011;3606;52.930;8.644;2022-10-18T13:01:17;3.03;;;1.97;;
7128;SDS011;3606;52.930;8.644;2022-10-18T13:03:53;7.37;;;2.50;;
7128;SDS011;3606;52.930;8.644;2022-10-18T13:06:21;7.30;;;2.20;;
7128;SDS011;3606;52.930;8.644;2022-10-18T13:08:52;12.43;;;2.53;;
7128;SDS011;3606;52.930;8.644;2022-10-18T13:11:39;6.70;;;2.30;;
7128;SDS011;3606;52.930;8.644;2022-10-18T13:14:17;8.53;;;2.23;;
7128;SDS011;3606;52.930;8.644;2022-10-18T13:30:55;5.23;;;2.10;;
7128;SDS011;3606;52.930;8.644;2022-10-18T13:38:37;7.87;;;2.60;;
7128;SDS011;3606;52.930;8.644;2022-10-18T13:46:21;12.33;;;2.50;;
7128;SDS011;3606;52.930;8.644;2022-10-18T13:51:42;7.57;;;2.30;;
7128;SDS011;3606;52.930;8.644;2022-10-18T14:00:02;6.53;;;2.73;;
7128;SDS011;3606;52.930;8.644;2022-10-18T14:02:36;6.07;;;2.00;;
7128;SDS011;3606;52.930;8.644;2022-10-18T14:05:13;7.37;;;1.73;;
7128;SDS011;3606;52.930;8.644;2022-10-18T14:07:58;6.23;;;2.03;;
7128;SDS011;3606;52.930;8.644;2022-10-18T14:10:37;6.50;;;2.33;;
7128;SDS011;3606;52.930;8.644;2022-10-18T14:13:47;6.90;;;2.33;;
7128;SDS011;3606;52.930;8.644;2022-10-18T14:16:35;4.30;;;2.00;;
7128;SDS011;3606;52.930;8.644;2022-10-18T14:22:37;8.00;;;2.10;;
7128;SDS011;3606;52.930;8.644;2022-10-18T14:28:14;5.73;;;2.03;;
7128;SDS011;3606;52.930;8.644;2022-10-18T14:36:02;6.77;;;2.00;;
7128;SDS011;3606;52.930;8.644;2022-10-18T14:38:33;6.70;;;2.10;;
7128;SDS011;3606;52.930;8.644;2022-10-18T14:41:05;8.87;;;2.07;;
7128;SDS011;3606;52.930;8.644;2022-10-18T14:43:39;6.90;;;1.57;;
7128;SDS011;3606;52.930;8.644;2022-10-18T14:46:08;7.63;;;2.07;;
7128;SDS011;3606;52.930;8.644;2022-10-18T14:48:50;4.87;;;2.43;;
7128;SDS011;3606;52.930;8.644;2022-10-18T14:51:20;5.13;;;2.00;;
7128;SDS011;3606;52.930;8.644;2022-10-18T14:53:46;5.23;;;1.93;;
7128;SDS011;3606;52.930;8.644;2022-10-18T14:56:18;8.20;;;2.30;;
7128;SDS011;3606;52.930;8.644;2022-10-18T14:58:47;8.40;;;2.53;;
7128;SDS011;3606;52.930;8.644;2022-10-18T15:01:16;8.30;;;1.97;;
7128;SDS011;3606;52.930;8.644;2022-10-18T15:03:43;5.07;;;1.90;;
7128;SDS011;3606;52.930;8.644;2022-10-18T15:06:14;4.87;;;1.97;;
7128;SDS011;3606;52.930;8.644;2022-10-18T15:08:42;5.10;;;2.10;;
7128;SDS011;3606;52.930;8.644;2022-10-18T15:11:09;4.17;;;1.67;;
7128;SDS011;3606;52.930;8.644;2022-10-18T15:13:38;9.60;;;2.00;;
7128;SDS011;3606;52.930;8.644;2022-10-18T15:16:33;11.67;;;2.40;;
7128;SDS011;3606;52.930;8.644;2022-10-18T15:19:06;8.37;;;2.27;;
7128;SDS011;3606;52.930;8.644;2022-10-18T15:21:48;4.73;;;1.97;;
7128;SDS011;3606;52.930;8.644;2022-10-18T15:24:27;10.47;;;2.13;;
7128;SDS011;3606;52.930;8.644;2022-10-18T15:27:00;7.00;;;1.90;;
7128;SDS011;3606;52.930;8.644;2022-10-18T15:29:37;8.23;;;2.00;;
7128;SDS011;3606;52.930;8.644;2022-10-18T15:32:06;7.83;;;1.87;;
7128;SDS011;3606;52.930;8.644;2022-10-18T15:34:38;5.53;;;2.20;;
7128;SDS011;3606;52.930;8.644;2022-10-18T15:37:13;4.23;;;2.03;;
7128;SDS011;3606;52.930;8.644;2022-10-18T15:39:41;3.57;;;1.70;;
7128;SDS011;3606;52.930;8.644;2022-10-18T15:42:30;5.77;;;2.10;;
7128;SDS011;3606;52.930;8.644;2022-10-18T15:45:00;6.50;;;2.20;;
7128;SDS011;3606;52.930;8.644;2022-10-18T15:47:25;7.20;;;2.20;;
7128;SDS011;3606;52.930;8.644;2022-10-18T15:49:55;10.57;;;2.47;;
7128;SDS011;3606;52.930;8.644;2022-10-18T15:52:29;9.33;;;2.73;;
7128;SDS011;3606;52.930;8.644;2022-10-18T15:58:01;6.93;;;1.97;;
7128;SDS011;3606;52.930;8.644;2022-10-18T16:00:39;8.13;;;2.23;;
7128;SDS011;3606;52.930;8.644;2022-10-18T16:03:07;8.17;;;2.33;;
7128;SDS011;3606;52.930;8.644;2022-10-18T16:05:34;6.23;;;2.67;;
7128;SDS011;3606;52.930;8.644;2022-10-18T16:08:01;7.87;;;2.07;;
7128;SDS011;3606;52.930;8.644;2022-10-18T16:10:26;10.27;;;2.40;;
7128;SDS011;3606;52.930;8.644;2022-10-18T16:12:52;7.53;;;2.70;;
7128;SDS011;3606;52.930;8.644;2022-10-18T16:15:17;4.60;;;2.50;;
7128;SDS011;3606;52.930;8.644;2022-10-18T16:17:43;9.03;;;2.73;;
7128;SDS011;3606;52.930;8.644;2022-10-18T16:20:30;6.17;;;2.07;;
7128;SDS011;3606;52.930;8.644;2022-10-18T16:22:55;10.87;;;3.20;;
7128;SDS011;3606;52.930;8.644;2022-10-18T16:25:20;13.73;;;4.63;;
7128;SDS011;3606;52.930;8.644;2022-10-18T16:27:46;15.20;;;3.10;;
7128;SDS011;3606;52.930;8.644;2022-10-18T16:30:13;10.40;;;3.77;;
7128;SDS011;3606;52.930;8.644;2022-10-18T16:32:41;8.77;;;2.30;;
7128;SDS011;3606;52.930;8.644;2022-10-18T16:35:07;7.10;;;2.40;;
7128;SDS011;3606;52.930;8.644;2022-10-18T16:37:34;8.47;;;3.07;;
7128;SDS011;3606;52.930;8.644;2022-10-18T16:40:09;8.37;;;3.00;;
7128;SDS011;3606;52.930;8.644;2022-10-18T16:42:45;10.13;;;3.13;;
7128;SDS011;3606;52.930;8.644;2022-10-18T16:45:11;9.80;;;3.10;;
7128;SDS011;3606;52.930;8.644;2022-10-18T16:47:36;9.63;;;3.00;;
7128;SDS011;3606;52.930;8.644;2022-10-18T16:50:02;13.37;;;4.40;;
7128;SDS011;3606;52.930;8.644;2022-10-18T16:52:32;17.03;;;5.63;;
7128;SDS011;3606;52.930;8.644;2022-10-18T16:54:58;11.20;;;4.60;;
7128;SDS011;3606;52.930;8.644;2022-10-18T16:57:23;8.10;;;3.27;;
7128;SDS011;3606;52.930;8.644;2022-10-18T16:59:49;14.53;;;3.33;;
7128;SDS011;3606;52.930;8.644;2022-10-18T17:02:14;7.77;;;2.77;;
7128;SDS011;3606;52.930;8.644;2022-10-18T17:04:40;7.50;;;2.50;;
7128;SDS011;3606;52.930;8.644;2022-10-18T17:07:06;12.50;;;3.00;;
7128;SDS011;3606;52.930;8.644;2022-10-18T17:09:31;8.27;;;2.57;;
7128;SDS011;3606;52.930;8.644;2022-10-18T17:11:58;5.67;;;2.37;;
7128;SDS011;3606;52.930;8.644;2022-10-18T17:14:24;8.37;;;2.33;;
7128;SDS011;3606;52.930;8.644;2022-10-18T17:16:50;9.13;;;2.60;;
7128;SDS011;3606;52.930;8.644;2022-10-18T17:19:15;6.23;;;2.40;;
7128;SDS011;3606;52.930;8.644;2022-10-18T17:21:41;8.00;;;3.20;;
7128;SDS011;3606;52.930;8.644;2022-10-18T17:24:07;5.43;;;2.43;;
7128;SDS011;3606;52.930;8.644;2022-10-18T17:26:32;8.67;;;2.57;;
7128;SDS011;3606;52.930;8.644;2022-10-18T17:29:00;11.20;;;4.93;;
7128;SDS011;3606;52.930;8.644;2022-10-18T17:31:28;10.53;;;4.57;;
7128;SDS011;3606;52.930;8.644;2022-10-18T17:33:54;6.90;;;3.43;;
7128;SDS011;3606;52.930;8.644;2022-10-18T17:36:20;10.10;;;2.87;;
7128;SDS011;3606;52.930;8.644;2022-10-18T17:38:48;25.30;;;13.37;;
7128;SDS011;3606;52.930;8.644;2022-10-18T17:41:15;20.33;;;9.70;;
7128;SDS011;3606;52.930;8.644;2022-10-18T17:43:40;9.77;;;5.03;;
7128;SDS011;3606;52.930;8.644;2022-10-18T17:46:06;8.37;;;2.87;;
7128;SDS011;3606;52.930;8.644;2022-10-18T17:48:32;8.63;;;2.60;;
7128;SDS011;3606;52.930;8.644;2022-10-18T17:50:57;9.63;;;2.93;;
7128;SDS011;3606;52.930;8.644;2022-10-18T17:53:23;7.43;;;3.60;;
7128;SDS011;3606;52.930;8.644;2022-10-18T17:55:56;10.27;;;3.73;;
7128;SDS011;3606;52.930;8.644;2022-10-18T17:58:23;5.10;;;3.40;;
7128;SDS011;3606;52.930;8.644;2022-10-18T18:00:48;8.43;;;3.00;;